ESMS/MMX METAR and TAF weather

Enter ICAO airport designator
Station Type Date Time Source
ESMS METAR 2019/04/25 01:50 UTC NOAA

ESMS 250150Z 11010KT CAVOK 12/07 Q1009


Station Type Date Time Source
ESMS Decoded METAR 2019/04/25 01:50 UTC NOAA

Malmo / Sturup, Sweden (ESMS) 55-33N 013-22E
Apr 24, 2019 - 09:50 PM EDT / 2019.04.25 0150 UTC
Wind: from the ESE (110 degrees) at 12 MPH (10 KT):0
Visibility: greater than 7 mile(s):0
Temperature: 53 F (12 C)
Dew Point: 44 F (7 C)
Relative Humidity: 71%
Pressure (altimeter): 29.80 in. Hg (1009 hPa)
ob: ESMS 250150Z 11010KT CAVOK 12/07 Q1009
cycle: 2

Station Type Date Time Source
ESMS TAF 2019/04/24 18:33 UTC NOAA

TAF ESMS 241710Z 2418/2518 11010KT CAVOK

Example: see airport list